createdAt,value
2018-07-09T00:00:37.930Z,91.10
2018-07-09T00:01:42.006Z,91.30
2018-07-09T00:02:46.126Z,91.40
2018-07-09T00:03:50.190Z,91.50
2018-07-09T00:04:54.300Z,91.60
2018-07-09T00:05:58.483Z,91.80
2018-07-09T00:07:02.598Z,91.90
2018-07-09T00:08:07.259Z,92.00
2018-07-09T00:09:11.306Z,92.10
2018-07-09T00:10:25.943Z,92.30
2018-07-09T00:11:29.999Z,92.60
2018-07-09T00:12:34.053Z,92.80
2018-07-09T00:13:38.766Z,93.20
2018-07-09T00:14:42.802Z,93.10
2018-07-09T00:15:46.855Z,93.00
2018-07-09T00:16:50.875Z,92.70
2018-07-09T00:17:55.005Z,92.90
2018-07-09T00:18:59.068Z,93.10
2018-07-09T00:20:03.372Z,92.40
2018-07-09T00:21:07.442Z,92.40
2018-07-09T00:22:11.507Z,92.60
2018-07-09T00:23:16.198Z,92.70
2018-07-09T00:24:20.272Z,92.80
2018-07-09T00:25:24.341Z,92.90
2018-07-09T00:26:28.421Z,93.00
2018-07-09T00:27:32.617Z,93.10
2018-07-09T00:28:36.685Z,93.20
2018-07-09T00:29:40.764Z,93.40
2018-07-09T00:30:44.881Z,93.50
2018-07-09T00:31:48.954Z,93.60
2018-07-09T00:32:53.035Z,93.90
2018-07-09T00:33:57.172Z,93.80
2018-07-09T00:36:04.987Z,94.00
2018-07-09T00:37:09.037Z,94.20
2018-07-09T00:38:13.291Z,94.30
2018-07-09T00:39:17.346Z,94.30
2018-07-09T00:40:21.452Z,94.20
2018-07-09T00:41:25.565Z,94.40
2018-07-09T00:42:29.683Z,94.60
2018-07-09T00:43:33.778Z,94.80
2018-07-09T00:44:37.892Z,94.50
2018-07-09T00:45:41.964Z,94.70
2018-07-09T00:46:46.264Z,94.90
2018-07-09T00:47:50.992Z,95.00
2018-07-09T00:48:55.207Z,95.00
2018-07-09T00:49:59.422Z,95.00
2018-07-09T00:51:03.537Z,95.20
2018-07-09T00:52:07.626Z,95.40
2018-07-09T00:53:11.752Z,95.30
2018-07-09T00:54:15.893Z,95.30
2018-07-09T00:55:19.924Z,95.30
2018-07-09T00:57:27.708Z,95.70
2018-07-09T00:58:31.837Z,95.80
2018-07-09T00:59:35.879Z,95.90
2018-07-09T01:00:39.935Z,96.20
2018-07-09T01:01:44.036Z,96.10
2018-07-09T01:02:48.175Z,96.30
2018-07-09T01:03:52.257Z,96.40
2018-07-09T01:04:56.379Z,96.50
2018-07-09T01:06:00.362Z,96.60
2018-07-09T01:07:04.545Z,96.70
2018-07-09T01:08:08.567Z,96.80
2018-07-09T01:09:12.795Z,96.90
2018-07-09T01:10:18.058Z,97.00
2018-07-09T01:11:33.472Z,97.20
2018-07-09T01:12:37.692Z,97.30
2018-07-09T01:13:44.399Z,97.40
2018-07-09T01:14:48.471Z,97.40
2018-07-09T01:15:52.580Z,97.40
2018-07-09T01:16:56.703Z,97.30
2018-07-09T01:18:00.790Z,97.10
2018-07-09T01:19:04.866Z,97.10
2018-07-09T01:20:09.015Z,97.10
2018-07-09T01:21:14.519Z,97.40
2018-07-09T01:22:18.605Z,97.40
2018-07-09T01:23:22.754Z,97.50
2018-07-09T01:24:26.861Z,97.70
2018-07-09T01:25:30.961Z,97.70
2018-07-09T01:26:35.227Z,97.40
2018-07-09T01:27:39.335Z,97.40
2018-07-09T01:28:43.392Z,97.70
2018-07-09T01:29:47.504Z,97.70
2018-07-09T01:30:51.715Z,97.70
2018-07-09T01:31:55.787Z,97.60
2018-07-09T01:32:59.849Z,97.50
2018-07-09T01:34:03.860Z,97.40
2018-07-09T01:35:08.948Z,97.50
2018-07-09T01:36:13.029Z,97.60
2018-07-09T01:37:17.163Z,97.80
2018-07-09T01:38:21.295Z,97.60
2018-07-09T01:39:25.430Z,97.40
2018-07-09T01:40:29.497Z,97.20
2018-07-09T01:41:33.586Z,97.20
2018-07-09T01:42:37.943Z,97.30
2018-07-09T01:43:42.103Z,97.40
2018-07-09T01:44:46.158Z,97.60
2018-07-09T01:45:50.186Z,97.80
2018-07-09T01:46:54.271Z,97.80
2018-07-09T01:47:58.314Z,97.90
2018-07-09T01:49:02.386Z,97.90
2018-07-09T01:50:06.464Z,97.90
2018-07-09T01:51:10.515Z,97.90
2018-07-09T01:52:14.569Z,97.60
2018-07-09T01:53:18.635Z,97.70
2018-07-09T01:54:22.788Z,97.30
2018-07-09T01:55:26.916Z,97.60
2018-07-09T01:56:31.208Z,97.70
2018-07-09T01:57:35.401Z,97.70
2018-07-09T01:58:39.487Z,97.80
2018-07-09T01:59:43.522Z,97.80
2018-07-09T02:00:47.704Z,97.90
2018-07-09T02:01:52.036Z,98.10
2018-07-09T02:02:56.178Z,98.20
2018-07-09T02:04:00.267Z,98.10
2018-07-09T02:05:04.601Z,98.20
2018-07-09T02:06:08.686Z,98.20
2018-07-09T02:07:12.939Z,98.20
2018-07-09T02:08:17.149Z,98.20
2018-07-09T02:09:21.262Z,98.60
2018-07-09T02:10:25.640Z,98.40
2018-07-09T02:11:29.856Z,98.40
2018-07-09T02:12:34.048Z,98.30
2018-07-09T02:13:38.273Z,98.40
2018-07-09T02:14:42.439Z,98.50
2018-07-09T02:15:46.502Z,98.60
2018-07-09T02:16:50.561Z,98.70
2018-07-09T02:17:54.621Z,98.90
2018-07-09T02:18:58.705Z,98.80
2018-07-09T02:20:02.889Z,99.10
2018-07-09T02:21:06.946Z,98.90
2018-07-09T02:22:11.131Z,98.90
2018-07-09T02:23:15.121Z,99.00
2018-07-09T02:25:22.960Z,99.00
2018-07-09T02:26:27.175Z,99.00
2018-07-09T02:27:31.240Z,99.10
2018-07-09T02:29:38.947Z,99.20
2018-07-09T02:30:43.112Z,99.20
2018-07-09T02:31:47.229Z,99.30
2018-07-09T02:32:51.294Z,99.30
2018-07-09T02:33:55.405Z,99.30
2018-07-09T02:34:59.491Z,99.30
2018-07-09T02:36:03.539Z,99.40
2018-07-09T02:37:07.721Z,99.30
2018-07-09T02:38:11.926Z,99.10
2018-07-09T02:39:16.128Z,99.30
2018-07-09T02:40:20.231Z,99.30
2018-07-09T02:41:24.338Z,99.30
2018-07-09T02:42:28.423Z,99.60
2018-07-09T02:43:32.470Z,99.60
2018-07-09T02:44:36.562Z,99.70
2018-07-09T02:45:40.587Z,99.40
2018-07-09T02:47:52.471Z,99.40
2018-07-09T02:48:56.561Z,99.20
2018-07-09T02:50:00.672Z,99.20
2018-07-09T02:52:08.571Z,99.40
2018-07-09T02:53:12.694Z,99.60
2018-07-09T02:54:17.068Z,99.80
2018-07-09T02:55:21.147Z,99.90
2018-07-09T02:56:25.221Z,99.90
2018-07-09T02:57:29.316Z,99.30
2018-07-09T02:58:33.405Z,99.30
2018-07-09T02:59:37.508Z,99.40
2018-07-09T03:00:41.682Z,99.20
2018-07-09T03:01:45.776Z,99.20
2018-07-09T03:02:49.815Z,99.20
2018-07-09T03:03:53.879Z,99.10
2018-07-09T03:04:57.942Z,99.10
2018-07-09T03:06:02.044Z,99.30
2018-07-09T03:07:06.327Z,99.60
2018-07-09T03:08:10.452Z,99.70
2018-07-09T03:09:14.507Z,99.30
2018-07-09T03:10:18.540Z,98.70
2018-07-09T03:11:22.623Z,98.40
2018-07-09T03:12:26.687Z,98.30
2018-07-09T03:13:30.831Z,98.10
2018-07-09T03:14:34.899Z,98.20
2018-07-09T03:15:38.915Z,98.00
2018-07-09T03:16:43.104Z,98.10
2018-07-09T03:17:47.146Z,98.30
2018-07-09T03:18:51.221Z,98.20
2018-07-09T03:19:55.385Z,98.00
2018-07-09T03:20:59.431Z,97.80
2018-07-09T03:22:03.506Z,97.70
2018-07-09T03:23:07.584Z,98.50
2018-07-09T03:25:15.282Z,98.70
2018-07-09T03:27:23.043Z,98.80
2018-07-09T03:28:27.302Z,98.60
2018-07-09T03:30:34.937Z,98.70
2018-07-09T03:31:39.015Z,98.20
2018-07-09T03:32:43.072Z,98.20
2018-07-09T03:33:47.137Z,98.00
2018-07-09T03:34:51.158Z,98.00
2018-07-09T03:35:55.200Z,97.80
2018-07-09T03:36:59.236Z,98.10
2018-07-09T03:38:03.304Z,97.90
2018-07-09T03:39:07.495Z,97.90
2018-07-09T03:40:11.567Z,97.70
2018-07-09T03:41:15.756Z,97.70
2018-07-09T03:42:19.788Z,98.00
2018-07-09T03:44:27.499Z,98.80
2018-07-09T03:45:31.656Z,98.20
2018-07-09T03:46:35.776Z,98.00
2018-07-09T03:47:39.823Z,98.20
2018-07-09T03:48:43.821Z,98.20
2018-07-09T03:49:47.945Z,98.60
2018-07-09T03:50:51.988Z,98.90
2018-07-09T03:51:56.136Z,98.90
2018-07-09T03:53:00.214Z,99.00
2018-07-09T03:54:04.275Z,98.90
2018-07-09T03:55:08.338Z,98.60
2018-07-09T03:56:12.420Z,98.40
2018-07-09T03:57:16.445Z,98.50
2018-07-09T03:58:20.504Z,98.70
2018-07-09T03:59:24.555Z,98.60
2018-07-09T04:00:28.628Z,98.60
2018-07-09T04:01:32.714Z,98.10
2018-07-09T04:02:36.740Z,97.90
2018-07-09T04:03:40.867Z,98.10
2018-07-09T04:04:44.902Z,98.00
2018-07-09T04:05:49.156Z,98.30
2018-07-09T04:06:53.416Z,98.50
2018-07-09T04:07:57.521Z,98.50
2018-07-09T04:09:01.637Z,98.50
2018-07-09T04:10:05.726Z,98.30
2018-07-09T04:11:09.798Z,98.40
2018-07-09T04:12:13.983Z,98.20
2018-07-09T04:13:18.083Z,97.90
2018-07-09T04:14:22.149Z,97.90
2018-07-09T04:15:26.143Z,97.90
2018-07-09T04:16:30.194Z,97.80
2018-07-09T04:17:34.212Z,97.80
2018-07-09T04:18:38.336Z,97.80
2018-07-09T04:19:45.342Z,97.80
2018-07-09T04:20:49.489Z,97.80
2018-07-09T04:21:53.509Z,97.70
2018-07-09T04:22:57.555Z,97.70
2018-07-09T04:24:01.664Z,97.80
2018-07-09T04:25:05.987Z,97.90
2018-07-09T04:26:10.084Z,98.00
2018-07-09T04:27:14.102Z,97.90
2018-07-09T04:28:18.114Z,98.00
2018-07-09T04:29:22.205Z,98.00
2018-07-09T04:30:26.299Z,98.10
2018-07-09T04:31:30.328Z,98.10
2018-07-09T04:32:34.402Z,98.20
2018-07-09T04:33:38.524Z,98.20
2018-07-09T04:34:42.615Z,98.20
2018-07-09T04:35:46.742Z,98.20
2018-07-09T04:36:50.795Z,98.30
2018-07-09T04:38:58.707Z,98.50
2018-07-09T04:40:02.810Z,98.30
2018-07-09T04:41:06.861Z,98.60
2018-07-09T04:42:10.872Z,98.50
2018-07-09T04:43:14.972Z,98.40
2018-07-09T04:44:18.991Z,98.50
2018-07-09T04:45:23.093Z,98.60
2018-07-09T04:47:30.924Z,98.70
2018-07-09T04:48:34.924Z,98.70
2018-07-09T04:49:39.071Z,98.80
2018-07-09T04:50:43.127Z,98.70
2018-07-09T04:51:47.163Z,98.70
2018-07-09T04:52:51.638Z,98.50
2018-07-09T04:53:55.709Z,98.50
2018-07-09T04:54:59.996Z,98.40
2018-07-09T04:56:04.000Z,98.10
2018-07-09T04:57:08.017Z,97.90
2018-07-09T04:58:12.079Z,98.20
2018-07-09T04:59:16.206Z,98.10
2018-07-09T05:00:20.248Z,98.00
2018-07-09T05:01:24.444Z,98.00
2018-07-09T05:02:28.475Z,97.80
2018-07-09T05:03:32.533Z,97.80
2018-07-09T05:04:36.749Z,98.00
2018-07-09T05:05:40.926Z,98.10
2018-07-09T05:06:45.114Z,98.00
2018-07-09T05:07:49.251Z,97.90
2018-07-09T05:08:53.319Z,97.30
2018-07-09T05:09:57.398Z,97.40
2018-07-09T05:11:01.590Z,97.40
2018-07-09T05:12:05.979Z,97.00
2018-07-09T05:13:10.175Z,97.10
2018-07-09T05:14:14.191Z,97.10
2018-07-09T05:15:18.254Z,96.90
2018-07-09T05:16:22.364Z,96.70
2018-07-09T05:17:26.720Z,96.40
2018-07-09T05:18:30.778Z,96.30
2018-07-09T05:19:34.855Z,96.50
2018-07-09T05:20:38.968Z,96.60
2018-07-09T05:21:42.999Z,96.70
2018-07-09T05:22:47.261Z,96.70
2018-07-09T05:23:51.283Z,96.50
2018-07-09T05:24:55.354Z,96.50
2018-07-09T05:25:59.353Z,96.50
2018-07-09T05:27:03.427Z,96.50
2018-07-09T05:28:07.501Z,96.30
2018-07-09T05:29:11.620Z,96.70
2018-07-09T05:30:15.698Z,96.50
2018-07-09T05:31:19.745Z,96.50
2018-07-09T05:32:23.847Z,96.40
2018-07-09T05:33:27.951Z,96.40
2018-07-09T05:34:32.035Z,96.40
2018-07-09T05:35:36.047Z,96.50
2018-07-09T05:36:40.060Z,96.50
2018-07-09T05:37:44.139Z,96.30
2018-07-09T05:38:48.199Z,96.50
2018-07-09T05:39:52.245Z,96.50
2018-07-09T05:40:56.728Z,96.50
2018-07-09T05:42:01.612Z,96.50
2018-07-09T05:43:06.290Z,96.40
2018-07-09T05:44:10.595Z,96.20
2018-07-09T05:45:14.605Z,96.10
2018-07-09T05:46:18.682Z,96.00
2018-07-09T05:47:22.706Z,96.00
2018-07-09T05:48:26.919Z,95.90
2018-07-09T05:49:31.005Z,95.90
2018-07-09T05:50:35.077Z,96.00
2018-07-09T05:51:39.264Z,95.90
2018-07-09T05:52:43.308Z,95.90
2018-07-09T05:53:47.371Z,95.80
2018-07-09T05:54:51.433Z,95.70
2018-07-09T05:55:55.442Z,95.70
2018-07-09T05:56:59.454Z,95.80
2018-07-09T05:58:03.485Z,95.80
2018-07-09T05:59:07.518Z,95.60
2018-07-09T06:00:11.555Z,95.70
2018-07-09T06:01:15.642Z,95.60
2018-07-09T06:02:19.809Z,95.60
2018-07-09T06:03:23.909Z,95.70
2018-07-09T06:04:27.935Z,95.60
2018-07-09T06:05:32.022Z,95.10
2018-07-09T06:06:36.018Z,95.00
2018-07-09T06:07:40.042Z,95.30
2018-07-09T06:08:44.124Z,95.40
2018-07-09T06:09:48.253Z,95.30
2018-07-09T06:10:52.350Z,95.30
2018-07-09T06:11:56.528Z,95.30
2018-07-09T06:13:00.784Z,95.30
2018-07-09T06:14:05.035Z,95.40
2018-07-09T06:15:09.173Z,95.20
2018-07-09T06:16:13.326Z,94.80
2018-07-09T06:17:17.380Z,94.70
2018-07-09T06:18:21.493Z,94.80
2018-07-09T06:19:25.635Z,94.80
2018-07-09T06:20:29.657Z,94.80
2018-07-09T06:21:33.802Z,94.90
2018-07-09T06:22:37.834Z,95.00
2018-07-09T06:23:41.885Z,95.00
2018-07-09T06:24:45.956Z,95.00
2018-07-09T06:25:50.096Z,95.10
2018-07-09T06:26:54.136Z,95.00
2018-07-09T06:27:58.161Z,95.00
2018-07-09T06:29:02.243Z,95.00
2018-07-09T06:30:06.392Z,94.90
2018-07-09T06:31:10.469Z,94.80
2018-07-09T06:32:14.510Z,94.70
2018-07-09T06:33:18.633Z,94.70
2018-07-09T06:34:23.013Z,94.60
2018-07-09T06:35:27.131Z,94.60
2018-07-09T06:36:31.230Z,94.50
2018-07-09T06:37:35.266Z,94.30
2018-07-09T06:38:39.357Z,94.50
2018-07-09T06:39:43.350Z,94.90
2018-07-09T06:40:47.534Z,94.70
2018-07-09T06:41:51.818Z,94.90
2018-07-09T06:42:55.886Z,94.70
2018-07-09T06:43:59.922Z,94.70
2018-07-09T06:45:03.983Z,94.60
2018-07-09T06:46:08.070Z,94.80
2018-07-09T06:47:12.155Z,94.80
2018-07-09T06:48:16.239Z,94.70
2018-07-09T06:49:20.247Z,94.20
2018-07-09T06:50:24.297Z,94.30
2018-07-09T06:52:32.168Z,94.40
2018-07-09T06:53:36.499Z,94.50
2018-07-09T06:54:40.579Z,94.20
2018-07-09T06:55:44.663Z,94.50
2018-07-09T06:56:48.762Z,94.30
2018-07-09T06:57:52.817Z,94.10
2018-07-09T06:58:56.885Z,94.10
2018-07-09T07:00:01.011Z,94.20
2018-07-09T07:01:05.503Z,93.80
2018-07-09T07:02:09.550Z,93.70
2018-07-09T07:03:13.554Z,93.70
2018-07-09T07:04:17.699Z,93.60
2018-07-09T07:05:21.747Z,93.80
2018-07-09T07:06:25.891Z,94.00
2018-07-09T07:07:29.989Z,93.50
2018-07-09T07:08:34.098Z,93.40
2018-07-09T07:09:38.147Z,93.30
2018-07-09T07:10:42.324Z,93.30
2018-07-09T07:11:46.441Z,93.20
2018-07-09T07:12:50.505Z,93.30
2018-07-09T07:13:54.602Z,93.40
2018-07-09T07:14:58.830Z,93.30
2018-07-09T07:16:03.032Z,93.50
2018-07-09T07:17:07.175Z,93.40
2018-07-09T07:18:11.325Z,93.40
2018-07-09T07:19:15.562Z,93.40
2018-07-09T07:20:19.710Z,93.30
2018-07-09T07:21:23.804Z,93.30
2018-07-09T07:22:27.877Z,93.30
2018-07-09T07:23:31.955Z,93.20
2018-07-09T07:24:35.996Z,93.00
2018-07-09T07:25:40.094Z,92.50
2018-07-09T07:26:44.120Z,92.20
2018-07-09T07:27:48.215Z,92.00
2018-07-09T07:28:52.725Z,92.10
2018-07-09T07:29:56.800Z,92.20
2018-07-09T07:31:00.931Z,92.40
2018-07-09T07:32:04.953Z,92.40
2018-07-09T07:33:09.062Z,92.50
2018-07-09T07:34:13.055Z,92.50
2018-07-09T07:35:17.214Z,92.50
2018-07-09T07:36:21.284Z,92.60
2018-07-09T07:37:25.375Z,92.50
2018-07-09T07:38:29.631Z,92.30
2018-07-09T07:39:33.701Z,92.40
2018-07-09T07:40:37.863Z,92.50
2018-07-09T07:41:41.956Z,92.40
2018-07-09T07:42:46.311Z,91.90
2018-07-09T07:43:50.403Z,91.80
2018-07-09T07:44:54.623Z,91.40
2018-07-09T07:45:58.838Z,91.10
2018-07-09T07:47:02.872Z,90.70
2018-07-09T07:48:06.934Z,90.80
2018-07-09T07:49:10.963Z,90.70
2018-07-09T07:50:15.071Z,90.70
2018-07-09T07:51:19.118Z,90.80
2018-07-09T07:52:23.237Z,90.90
2018-07-09T07:53:27.257Z,91.00
2018-07-09T07:54:31.431Z,90.80
2018-07-09T07:56:39.217Z,90.80
2018-07-09T07:57:43.368Z,90.90
2018-07-09T07:58:47.416Z,91.10
2018-07-09T07:59:51.538Z,90.90
2018-07-09T08:00:55.622Z,90.90
2018-07-09T08:01:59.830Z,91.10
2018-07-09T08:03:04.686Z,90.80
2018-07-09T08:04:08.754Z,90.90
2018-07-09T08:05:12.999Z,90.90
2018-07-09T08:06:17.326Z,91.00
2018-07-09T08:07:21.340Z,91.00
2018-07-09T08:08:25.439Z,91.10
2018-07-09T08:09:29.635Z,91.10
2018-07-09T08:10:33.718Z,91.00
2018-07-09T08:11:48.561Z,90.70
2018-07-09T08:13:45.821Z,90.80
2018-07-09T08:14:49.841Z,90.80
2018-07-09T08:15:53.957Z,90.80
2018-07-09T08:16:57.972Z,88.90
2018-07-09T08:18:02.483Z,89.10
2018-07-09T08:19:06.562Z,88.90
2018-07-09T08:20:10.604Z,89.10
2018-07-09T08:21:14.754Z,88.90
2018-07-09T08:22:18.811Z,88.40
2018-07-09T08:23:23.013Z,88.10
2018-07-09T08:24:27.022Z,88.20
2018-07-09T08:25:31.197Z,88.40
2018-07-09T08:26:35.250Z,87.60
2018-07-09T08:27:39.370Z,88.10
2018-07-09T08:28:43.405Z,87.90
2018-07-09T08:29:47.452Z,86.60
2018-07-09T08:30:51.535Z,86.60
2018-07-09T08:31:55.652Z,87.10
2018-07-09T08:32:59.731Z,86.50
2018-07-09T08:34:03.836Z,85.70
2018-07-09T08:35:07.876Z,86.70
2018-07-09T08:36:11.914Z,86.80
2018-07-09T08:37:15.979Z,85.70
2018-07-09T08:38:20.253Z,85.00
2018-07-09T08:39:24.440Z,84.70
2018-07-09T08:40:28.502Z,85.00
2018-07-09T08:41:32.740Z,84.60
2018-07-09T08:42:36.869Z,84.90
2018-07-09T08:43:41.015Z,84.70
2018-07-09T08:44:45.532Z,84.50
2018-07-09T08:45:49.564Z,85.10
2018-07-09T08:46:53.970Z,84.90
2018-07-09T08:47:58.202Z,85.70
2018-07-09T08:49:02.364Z,85.70
2018-07-09T08:50:06.444Z,86.00
2018-07-09T08:51:10.743Z,85.10
2018-07-09T08:52:15.090Z,84.80
2018-07-09T08:53:19.131Z,85.30
2018-07-09T08:55:26.975Z,86.30
2018-07-09T08:56:31.206Z,85.20
2018-07-09T08:57:35.214Z,84.80
2018-07-09T08:58:39.217Z,84.40
2018-07-09T08:59:43.346Z,84.20
2018-07-09T09:00:47.353Z,83.60
2018-07-09T09:01:51.512Z,84.30
2018-07-09T09:02:55.562Z,84.20
2018-07-09T09:03:59.724Z,84.20
2018-07-09T09:05:03.826Z,84.00
2018-07-09T09:06:07.927Z,84.40
2018-07-09T09:07:11.982Z,84.10
2018-07-09T09:08:16.034Z,84.00
2018-07-09T09:09:20.102Z,83.70
2018-07-09T09:10:24.231Z,82.90
2018-07-09T09:11:28.248Z,82.60
2018-07-09T09:12:32.274Z,82.20
2018-07-09T09:13:36.566Z,83.00
2018-07-09T09:14:40.684Z,83.30
2018-07-09T09:15:44.863Z,82.90
2018-07-09T09:16:48.882Z,82.90
2018-07-09T09:17:52.960Z,82.90
2018-07-09T09:18:57.194Z,83.00
2018-07-09T09:20:01.296Z,82.10
2018-07-09T09:21:05.495Z,81.70
2018-07-09T09:22:09.649Z,81.40
2018-07-09T09:23:13.695Z,81.40
2018-07-09T09:24:17.795Z,81.10
2018-07-09T09:25:21.931Z,81.20
2018-07-09T09:26:26.051Z,81.30
2018-07-09T09:27:30.075Z,81.00
2018-07-09T09:28:34.154Z,81.60
2018-07-09T09:29:38.279Z,82.00
2018-07-09T09:30:42.345Z,81.80
2018-07-09T09:31:46.409Z,81.60
2018-07-09T09:32:50.576Z,81.70
2018-07-09T09:33:54.614Z,81.80
2018-07-09T09:34:58.793Z,81.90
2018-07-09T09:36:02.993Z,82.80
2018-07-09T09:37:07.129Z,82.20
2018-07-09T09:38:11.134Z,82.40
2018-07-09T09:39:15.169Z,82.20
2018-07-09T09:40:19.379Z,82.20
2018-07-09T09:41:23.416Z,81.80
2018-07-09T09:42:27.452Z,81.80
2018-07-09T09:43:31.508Z,81.90
2018-07-09T09:44:35.975Z,81.80
2018-07-09T09:45:40.691Z,82.00
2018-07-09T09:46:44.888Z,81.40
2018-07-09T09:47:48.928Z,81.10
2018-07-09T09:48:53.062Z,80.70
2018-07-09T09:49:57.206Z,80.80
2018-07-09T09:51:01.273Z,80.80
2018-07-09T09:52:05.327Z,81.40
2018-07-09T09:54:13.118Z,81.80
2018-07-09T09:55:17.378Z,80.80
2018-07-09T09:56:21.723Z,80.50
2018-07-09T09:57:25.817Z,80.70
2018-07-09T09:58:30.025Z,80.30
2018-07-09T09:59:34.042Z,80.00
2018-07-09T10:00:43.439Z,79.70
2018-07-09T10:01:47.498Z,80.40
2018-07-09T10:02:51.547Z,80.70
2018-07-09T10:03:55.596Z,81.00
2018-07-09T10:06:03.428Z,81.30
2018-07-09T10:07:07.598Z,81.10
2018-07-09T10:08:11.748Z,80.30
2018-07-09T10:09:15.857Z,79.10
2018-07-09T10:10:19.948Z,76.50
2018-07-09T10:11:24.136Z,77.10
2018-07-09T10:12:28.196Z,77.30
2018-07-09T10:13:32.291Z,77.90
2018-07-09T10:14:36.400Z,77.90
2018-07-09T10:16:44.189Z,77.80
2018-07-09T10:17:48.266Z,77.30
2018-07-09T10:18:52.403Z,78.30
2018-07-09T10:19:56.524Z,77.00
2018-07-09T10:21:00.616Z,77.60
2018-07-09T10:22:04.710Z,77.20
2018-07-09T10:23:08.873Z,76.10
2018-07-09T10:24:12.867Z,75.10
2018-07-09T10:25:16.962Z,74.60
2018-07-09T10:26:21.066Z,75.00
2018-07-09T10:27:25.108Z,75.20
2018-07-09T10:28:29.174Z,73.70
2018-07-09T10:29:33.175Z,72.60
2018-07-09T10:30:37.235Z,73.00
2018-07-09T10:31:41.478Z,73.20
2018-07-09T10:32:45.564Z,73.10
2018-07-09T10:33:49.557Z,72.30
2018-07-09T10:34:53.584Z,71.80
2018-07-09T10:35:57.923Z,71.70
2018-07-09T10:37:08.475Z,70.70
2018-07-09T10:38:12.529Z,71.00
2018-07-09T10:39:16.582Z,70.40
2018-07-09T10:40:20.686Z,70.40
2018-07-09T10:41:24.834Z,70.00
2018-07-09T10:42:28.951Z,71.00
2018-07-09T10:43:33.093Z,70.60
2018-07-09T10:44:37.133Z,71.10
2018-07-09T10:45:41.247Z,70.50
2018-07-09T10:46:45.270Z,70.80
2018-07-09T10:47:49.458Z,69.70
2018-07-09T10:48:53.483Z,69.60
2018-07-09T10:49:57.919Z,70.50
2018-07-09T10:51:02.032Z,71.30
2018-07-09T10:52:06.304Z,71.60
2018-07-09T10:53:10.340Z,71.70
2018-07-09T10:54:14.427Z,70.70
2018-07-09T10:55:18.723Z,69.50
2018-07-09T10:56:22.707Z,70.00
2018-07-09T10:57:26.767Z,70.70
2018-07-09T10:58:30.943Z,71.00
2018-07-09T10:59:35.005Z,70.10
2018-07-09T11:00:39.057Z,69.70
2018-07-09T11:01:43.058Z,69.90
2018-07-09T11:02:47.190Z,70.30
2018-07-09T11:04:55.057Z,70.20
2018-07-09T11:05:59.092Z,70.80
2018-07-09T11:08:07.162Z,72.30
2018-07-09T11:09:11.278Z,72.50
2018-07-09T11:10:15.375Z,71.00
2018-07-09T11:11:19.466Z,71.10
2018-07-09T11:12:23.518Z,71.30
2018-07-09T11:13:27.549Z,71.60
2018-07-09T11:14:31.551Z,71.70
2018-07-09T11:15:35.695Z,72.50
2018-07-09T11:16:39.750Z,72.20
2018-07-09T11:17:43.836Z,71.70
2018-07-09T11:18:48.031Z,72.50
2018-07-09T11:19:52.158Z,73.00
2018-07-09T11:20:56.184Z,73.30
2018-07-09T11:22:00.334Z,72.90
2018-07-09T11:23:04.443Z,71.90
2018-07-09T11:24:08.494Z,71.50
2018-07-09T11:25:12.561Z,71.50
2018-07-09T11:26:16.633Z,71.50
2018-07-09T11:27:20.642Z,71.20
2018-07-09T11:28:24.749Z,71.40
2018-07-09T11:29:29.153Z,71.50
2018-07-09T11:30:33.183Z,71.30
2018-07-09T11:31:37.442Z,70.50
2018-07-09T11:32:41.488Z,70.60
2018-07-09T11:33:45.547Z,71.00
2018-07-09T11:34:49.606Z,71.20
2018-07-09T11:35:53.801Z,69.50
2018-07-09T11:36:57.980Z,69.40
2018-07-09T11:39:05.974Z,70.20
2018-07-09T11:40:10.126Z,71.00
2018-07-09T11:41:14.191Z,70.90
2018-07-09T11:42:18.238Z,70.60
2018-07-09T11:43:22.259Z,70.60
2018-07-09T11:44:26.852Z,70.70
2018-07-09T11:45:30.973Z,70.20
2018-07-09T11:46:34.995Z,69.40
2018-07-09T11:47:38.990Z,69.40
2018-07-09T11:48:43.166Z,70.70
2018-07-09T11:49:47.210Z,70.10
2018-07-09T11:50:51.364Z,68.90
2018-07-09T11:51:55.445Z,68.70
2018-07-09T11:52:59.511Z,69.90
2018-07-09T11:54:03.620Z,69.60
2018-07-09T11:55:07.795Z,69.30
2018-07-09T11:56:11.845Z,69.00
2018-07-09T11:57:15.907Z,69.80
2018-07-09T11:58:19.937Z,69.70
2018-07-09T12:00:27.644Z,69.10
2018-07-09T12:01:31.659Z,70.00
2018-07-09T12:02:35.710Z,68.10
2018-07-09T12:03:39.710Z,67.90
2018-07-09T12:04:43.799Z,67.90
2018-07-09T12:05:47.831Z,67.70
2018-07-09T12:06:51.831Z,69.80
2018-07-09T12:07:56.002Z,69.10
2018-07-09T12:09:00.060Z,68.40
2018-07-09T12:10:04.513Z,67.60
2018-07-09T12:11:08.811Z,67.60
2018-07-09T12:12:12.842Z,68.00
2018-07-09T12:13:16.960Z,67.30
2018-07-09T12:14:21.067Z,67.30
2018-07-09T12:15:25.148Z,67.40
2018-07-09T12:16:29.423Z,67.40
2018-07-09T12:17:33.550Z,67.40
2018-07-09T12:18:37.588Z,67.60
2018-07-09T12:19:41.604Z,67.90
2018-07-09T12:20:45.613Z,67.70
2018-07-09T12:21:49.615Z,67.50
2018-07-09T12:22:53.701Z,67.80
2018-07-09T12:23:57.764Z,67.40
2018-07-09T12:25:01.754Z,68.20
2018-07-09T12:26:05.975Z,68.10
2018-07-09T12:27:09.979Z,67.90
2018-07-09T12:28:14.278Z,67.90
2018-07-09T12:29:18.386Z,68.50
2018-07-09T12:30:22.401Z,69.10
2018-07-09T12:31:26.473Z,68.80
2018-07-09T12:32:30.473Z,68.90
2018-07-09T12:33:34.575Z,68.60
2018-07-09T12:34:38.646Z,69.00
2018-07-09T12:35:43.114Z,68.60
2018-07-09T12:36:47.287Z,68.70
2018-07-09T12:37:51.324Z,68.80
2018-07-09T12:38:55.503Z,69.20
2018-07-09T12:39:59.566Z,68.20
2018-07-09T12:41:03.718Z,67.90
2018-07-09T12:42:07.816Z,67.90
2018-07-09T12:43:11.925Z,67.50
2018-07-09T12:44:16.058Z,67.50
2018-07-09T12:45:20.098Z,68.70
2018-07-09T12:46:24.124Z,67.50
2018-07-09T12:47:28.171Z,68.20
2018-07-09T12:49:35.984Z,67.30
2018-07-09T12:50:40.275Z,67.40
2018-07-09T12:51:44.321Z,67.40
2018-07-09T12:52:48.476Z,66.90
2018-07-09T12:53:52.550Z,66.30
2018-07-09T12:54:56.938Z,66.80
2018-07-09T12:56:00.950Z,65.80
2018-07-09T12:57:05.069Z,63.40
2018-07-09T12:58:09.143Z,64.40
2018-07-09T12:59:13.162Z,64.30
2018-07-09T13:00:17.370Z,63.10
2018-07-09T13:01:21.482Z,63.20
2018-07-09T13:02:25.484Z,63.60
2018-07-09T13:03:29.545Z,63.30
2018-07-09T13:04:33.612Z,63.30
2018-07-09T13:05:37.989Z,62.80
2018-07-09T13:06:42.942Z,62.50
2018-07-09T13:07:47.116Z,63.00
2018-07-09T13:08:51.381Z,62.00
2018-07-09T13:09:55.425Z,62.40
2018-07-09T13:10:59.476Z,62.60
2018-07-09T13:12:03.564Z,62.10
2018-07-09T13:13:07.662Z,63.00
2018-07-09T13:14:11.679Z,62.70
2018-07-09T13:15:15.731Z,62.70
2018-07-09T13:16:19.716Z,62.90
2018-07-09T13:17:23.761Z,63.50
2018-07-09T13:18:27.777Z,63.00
2018-07-09T13:19:31.860Z,63.40
2018-07-09T13:20:35.851Z,64.30
2018-07-09T13:21:39.835Z,64.20
2018-07-09T13:22:43.895Z,64.00
2018-07-09T13:23:47.927Z,64.30
2018-07-09T13:24:51.961Z,63.90
2018-07-09T13:25:56.492Z,63.90
2018-07-09T13:27:00.513Z,64.30
2018-07-09T13:28:04.521Z,64.30
2018-07-09T13:29:08.547Z,65.40
2018-07-09T13:30:12.533Z,65.30
2018-07-09T13:31:16.640Z,64.50
2018-07-09T13:32:20.657Z,64.00
2018-07-09T13:33:24.783Z,64.00
2018-07-09T13:34:28.838Z,64.00
2018-07-09T13:35:32.911Z,64.00
2018-07-09T13:36:36.910Z,64.20
2018-07-09T13:37:41.011Z,64.00
2018-07-09T13:38:45.139Z,63.80
2018-07-09T13:39:49.262Z,61.40
2018-07-09T13:40:53.498Z,61.70
2018-07-09T13:41:57.530Z,60.40
2018-07-09T13:43:02.056Z,61.10
2018-07-09T13:44:06.151Z,59.60
2018-07-09T13:45:10.262Z,59.90
2018-07-09T13:46:14.306Z,59.80
2018-07-09T13:47:19.104Z,59.20
2018-07-09T13:48:23.196Z,58.80
2018-07-09T13:49:27.347Z,58.70
2018-07-09T13:50:31.422Z,58.90
2018-07-09T13:51:35.482Z,58.40
2018-07-09T13:52:39.553Z,58.00
2018-07-09T13:53:43.616Z,57.40
2018-07-09T13:54:47.691Z,56.90
2018-07-09T13:55:52.029Z,56.40
2018-07-09T13:56:56.139Z,55.90
2018-07-09T13:58:00.274Z,56.10
2018-07-09T13:59:04.371Z,55.90
2018-07-09T14:00:08.468Z,55.20
2018-07-09T14:01:12.549Z,55.30
2018-07-09T14:02:16.526Z,53.10
2018-07-09T14:03:20.560Z,54.00
2018-07-09T14:04:24.588Z,54.80
2018-07-09T14:05:28.695Z,54.80
2018-07-09T14:06:32.651Z,53.90
2018-07-09T14:07:36.710Z,52.80
2018-07-09T14:08:40.732Z,52.50
2018-07-09T14:09:44.751Z,52.10
2018-07-09T14:10:48.805Z,50.90
2018-07-09T14:11:52.860Z,50.90